Time;durP1;ratioP1;P1;durP2;ratioP2;P2;SDS_P1;SDS_P2;PMS_P1;PMS_P2;Temp;Humidity;BMP_temperature;BMP_pressure;BME280_temperature;BME280_humidity;BME280_pressure;Samples;Min_cycle;Max_cycle;Signal;HPM_P1;HPM_P2
2021/01/06 00:00:04;;;;;;;;;;;4.00;99.90;;;;;;5055822;28;20298;-80
2021/01/06 00:02:29;;;;;;;;;;;4.00;99.90;;;;;;5071022;28;19995;-81
2021/01/06 00:04:55;;;;;;;;;;;4.00;99.90;;;;;;5073230;28;19951;-80
2021/01/06 00:07:20;;;;;;;;;;;4.00;99.90;;;;;;5056318;28;20365;-80
2021/01/06 00:09:46;;;;;;;;;;;4.00;99.90;;;;;;5075841;28;19999;-80
2021/01/06 00:12:11;;;;;;;;;;;4.00;99.90;;;;;;5076216;28;20457;-80
2021/01/06 00:14:36;;;;;;;;;;;4.10;99.90;;;;;;5071841;28;19912;-80
2021/01/06 00:17:02;;;;;;;;;;;4.10;99.90;;;;;;5062832;28;20004;-80
2021/01/06 00:19:27;;;;;;;;;;;4.00;99.90;;;;;;5062254;28;19919;-80
2021/01/06 00:21:53;;;;;;;;;;;4.00;99.90;;;;;;5078114;28;19913;-80
2021/01/06 00:24:18;;;;;;;;;;;4.00;99.90;;;;;;5095462;28;19916;-81
2021/01/06 00:26:44;;;;;;;;;;;4.00;99.90;;;;;;5099357;28;19967;-80
2021/01/06 00:29:10;;;;;;;;;;;4.00;99.90;;;;;;5096052;28;19913;-81
2021/01/06 00:31:40;;;;;;;;;;;4.00;99.90;;;;;;5098803;28;19987;-81
2021/01/06 00:34:05;;;;;;;;;;;4.00;99.90;;;;;;5076973;28;19999;-80
2021/01/06 00:36:31;;;;;;;;;;;4.00;99.90;;;;;;5068918;28;19986;-80
2021/01/06 00:38:56;;;;;;;;;;;4.00;99.90;;;;;;5068522;28;20522;-80
2021/01/06 00:41:26;;;;;;;;;;;4.10;99.90;;;;;;5092258;28;19923;-81
2021/01/06 00:43:52;;;;;;;;;;;4.10;99.90;;;;;;5073914;28;19916;-80
2021/01/06 00:46:17;;;;;;;;;;;4.10;99.90;;;;;;5064516;28;19983;-80
2021/01/06 00:48:43;;;;;;;;;;;4.10;99.90;;;;;;5075444;28;19934;-80
2021/01/06 00:51:08;;;;;;;;;;;4.10;99.90;;;;;;5087698;28;19919;-81
2021/01/06 00:53:34;;;;;;;;;;;4.10;99.90;;;;;;5079185;28;19909;-81
2021/01/06 00:55:59;;;;;;;;;;;4.10;99.90;;;;;;5058891;28;19913;-81
2021/01/06 00:58:25;;;;;;;;;;;4.20;99.90;;;;;;5079441;28;19951;-80
2021/01/06 01:00:52;;;;;;;;;;;4.20;99.90;;;;;;5082541;28;19995;-80
2021/01/06 01:03:18;;;;;;;;;;;4.30;99.90;;;;;;5073392;23;19995;-82
2021/01/06 01:05:44;;;;;;;;;;;4.30;99.90;;;;;;5058766;28;19959;-81
2021/01/06 01:08:10;;;;;;;;;;;4.30;99.90;;;;;;5061525;28;19917;-82
2021/01/06 01:10:39;;;;;;;;;;;4.30;99.90;;;;;;5068875;28;19957;-81
2021/01/06 01:13:06;;;;;;;;;;;4.30;99.90;;;;;;5086246;28;19961;-84
2021/01/06 01:15:33;;;;;;;;;;;4.40;99.90;;;;;;5079061;28;19913;-84
2021/01/06 01:17:59;;;;;;;;;;;4.40;99.90;;;;;;5077576;28;19919;-81
2021/01/06 01:20:25;;;;;;;;;;;4.40;99.90;;;;;;5088478;28;19912;-82
2021/01/06 01:22:50;;;;;;;;;;;4.40;99.90;;;;;;5077783;28;19912;-82
2021/01/06 01:25:19;;;;;;;;;;;4.40;99.90;;;;;;5079644;28;19959;-82
2021/01/06 01:27:44;;;;;;;;;;;4.40;99.90;;;;;;5076219;28;19916;-81
2021/01/06 01:30:18;;;;;;;;;;;4.40;99.90;;;;;;5076151;28;19961;-82
2021/01/06 01:32:44;;;;;;;;;;;4.40;99.90;;;;;;5100030;28;19915;-82
2021/01/06 01:35:11;;;;;;;;;;;4.40;99.90;;;;;;5075813;28;19919;-82
2021/01/06 01:37:40;;;;;;;;;;;4.40;99.90;;;;;;5072884;28;19956;-82
2021/01/06 01:40:05;;;;;;;;;;;4.30;99.90;;;;;;5062966;28;19951;-81
2021/01/06 01:42:31;;;;;;;;;;;4.30;99.90;;;;;;5072056;28;19936;-81
2021/01/06 01:44:57;;;;;;;;;;;4.30;99.90;;;;;;5080911;28;19927;-81
2021/01/06 01:47:24;;;;;;;;;;;4.30;99.90;;;;;;5060798;28;19956;-82
2021/01/06 01:49:50;;;;;;;;;;;4.30;99.90;;;;;;5076186;28;20014;-82
2021/01/06 01:52:42;;;;;;;;;;;4.30;99.90;;;;;;5076485;28;19958;-81
2021/01/06 01:55:09;;;;;;;;;;;4.30;99.90;;;;;;5079615;28;19912;-82
2021/01/06 01:57:43;;;;;;;;;;;4.30;99.90;;;;;;5091436;28;19971;-81
2021/01/06 02:00:09;;;;;;;;;;;4.30;99.90;;;;;;5064470;28;19927;-82
2021/01/06 02:02:34;;;;;;;;;;;4.30;99.90;;;;;;5076521;28;20373;-80
2021/01/06 02:05:12;;;;;;;;;;;4.30;99.90;;;;;;5061347;28;19960;-83
2021/01/06 02:07:45;;;;;;;;;;;4.30;99.90;;;;;;5078850;28;19936;-83
2021/01/06 02:10:20;;;;;;;;;;;4.30;99.90;;;;;;5065458;28;19916;-83
2021/01/06 02:13:11;;;;;;;;;;;4.30;99.90;;;;;;5067722;28;19917;-82
2021/01/06 02:15:44;;;;;;;;;;;4.40;99.90;;;;;;5063230;28;19912;-82
2021/01/06 02:18:10;;;;;;;;;;;4.40;99.90;;;;;;5057152;28;20028;-82
2021/01/06 02:20:36;;;;;;;;;;;4.30;99.90;;;;;;5057738;28;19952;-82
2021/01/06 02:23:02;;;;;;;;;;;4.30;99.90;;;;;;5079319;28;19920;-82
2021/01/06 02:25:28;;;;;;;;;;;4.30;99.90;;;;;;5070048;28;20005;-82
2021/01/06 02:27:55;;;;;;;;;;;4.30;99.90;;;;;;5067045;28;19994;-82
2021/01/06 02:30:21;;;;;;;;;;;4.40;99.90;;;;;;5063260;28;19919;-82
2021/01/06 02:32:48;;;;;;;;;;;4.40;99.90;;;;;;5081444;28;20338;-82
2021/01/06 02:35:13;;;;;;;;;;;4.30;99.90;;;;;;5051307;28;19980;-83
2021/01/06 02:37:39;;;;;;;;;;;4.40;99.90;;;;;;5073212;28;19955;-82
2021/01/06 02:40:06;;;;;;;;;;;4.40;99.90;;;;;;5095734;28;19919;-81
2021/01/06 02:42:32;;;;;;;;;;;4.30;99.90;;;;;;5080099;28;19913;-82
2021/01/06 02:44:57;;;;;;;;;;;4.30;99.90;;;;;;5079887;28;20011;-81
2021/01/06 02:47:23;;;;;;;;;;;4.30;99.90;;;;;;5081095;28;19912;-81
2021/01/06 02:49:49;;;;;;;;;;;4.30;99.90;;;;;;5059680;28;19947;-83
2021/01/06 02:52:20;;;;;;;;;;;4.30;99.90;;;;;;5079237;28;19955;-82
2021/01/06 02:54:47;;;;;;;;;;;4.30;99.90;;;;;;5062601;28;19920;-83
2021/01/06 02:57:14;;;;;;;;;;;4.30;99.90;;;;;;5070936;28;19934;-82
2021/01/06 02:59:43;;;;;;;;;;;4.30;99.90;;;;;;5091162;28;19912;-82
2021/01/06 03:02:10;;;;;;;;;;;4.30;99.90;;;;;;5088064;28;19913;-83
2021/01/06 03:04:37;;;;;;;;;;;4.30;99.90;;;;;;5095522;28;19923;-83
2021/01/06 03:07:03;;;;;;;;;;;4.30;99.90;;;;;;5071855;28;20315;-81
2021/01/06 03:09:29;;;;;;;;;;;4.30;99.90;;;;;;5081116;28;19912;-82
2021/01/06 03:11:55;;;;;;;;;;;4.30;99.90;;;;;;5079854;28;19974;-83
2021/01/06 03:14:21;;;;;;;;;;;4.30;99.90;;;;;;5061065;28;19923;-83
2021/01/06 03:16:47;;;;;;;;;;;4.30;99.90;;;;;;5064854;28;20338;-82
2021/01/06 03:19:14;;;;;;;;;;;4.30;99.90;;;;;;5098497;28;19908;-82
2021/01/06 03:21:41;;;;;;;;;;;4.30;99.90;;;;;;5062694;28;19917;-82
2021/01/06 03:24:08;;;;;;;;;;;4.30;99.90;;;;;;5080716;28;20388;-83
2021/01/06 03:26:34;;;;;;;;;;;4.30;99.90;;;;;;5085189;28;19912;-83
2021/01/06 03:29:00;;;;;;;;;;;4.30;99.90;;;;;;5098336;28;19916;-83
2021/01/06 03:31:37;;;;;;;;;;;4.40;99.90;;;;;;5067492;28;19983;-83
2021/01/06 03:34:05;;;;;;;;;;;4.40;99.90;;;;;;5098163;28;20443;-81
2021/01/06 03:36:35;;;;;;;;;;;4.40;99.90;;;;;;5061364;28;19924;-82
2021/01/06 03:39:03;;;;;;;;;;;4.40;99.90;;;;;;5072182;28;20280;-82
2021/01/06 03:41:29;;;;;;;;;;;4.40;99.90;;;;;;5081987;28;19912;-83
2021/01/06 03:44:03;;;;;;;;;;;4.40;99.90;;;;;;5095841;28;19916;-80
2021/01/06 03:46:32;;;;;;;;;;;4.40;99.90;;;;;;5074085;28;19958;-82
2021/01/06 03:49:05;;;;;;;;;;;4.40;99.90;;;;;;5070884;28;19913;-82
2021/01/06 03:51:37;;;;;;;;;;;4.40;99.90;;;;;;5069503;28;19920;-82
2021/01/06 03:54:11;;;;;;;;;;;4.40;99.90;;;;;;5077167;28;19924;-81
2021/01/06 03:56:38;;;;;;;;;;;4.40;99.90;;;;;;5067885;28;20387;-83
2021/01/06 03:59:17;;;;;;;;;;;4.40;99.90;;;;;;5067677;28;19923;-81
2021/01/06 04:01:45;;;;;;;;;;;4.40;99.90;;;;;;5095789;28;19912;-82
2021/01/06 04:04:22;;;;;;;;;;;4.40;99.90;;;;;;5077132;28;19968;-81
2021/01/06 04:06:50;;;;;;;;;;;4.40;99.90;;;;;;5074631;28;19921;-82
2021/01/06 04:09:17;;;;;;;;;;;4.40;99.90;;;;;;5067193;28;19913;-82
2021/01/06 04:11:46;;;;;;;;;;;4.40;99.90;;;;;;5077193;28;19916;-82
2021/01/06 04:14:11;;;;;;;;;;;4.40;99.90;;;;;;5084229;28;19908;-82
2021/01/06 04:16:37;;;;;;;;;;;4.40;99.90;;;;;;5094393;28;19915;-82
2021/01/06 04:19:02;;;;;;;;;;;4.40;99.90;;;;;;5087057;28;19912;-82
2021/01/06 04:21:29;;;;;;;;;;;4.40;99.90;;;;;;5066061;28;19908;-83
2021/01/06 04:23:55;;;;;;;;;;;4.50;99.90;;;;;;5083434;28;20436;-83
2021/01/06 04:26:20;;;;;;;;;;;4.40;99.90;;;;;;5084783;28;19908;-83
2021/01/06 04:28:46;;;;;;;;;;;4.40;99.90;;;;;;5099972;28;19912;-81
2021/01/06 04:31:16;;;;;;;;;;;4.40;99.90;;;;;;5067161;28;20272;-82
2021/01/06 04:33:44;;;;;;;;;;;4.40;99.90;;;;;;5083129;28;19920;-82
2021/01/06 04:36:21;;;;;;;;;;;4.40;99.90;;;;;;5085523;28;19916;-82
2021/01/06 04:38:51;;;;;;;;;;;4.40;99.90;;;;;;5063881;28;19976;-81
2021/01/06 04:41:19;;;;;;;;;;;4.40;99.90;;;;;;5057628;28;20321;-83
2021/01/06 04:44:05;;;;;;;;;;;4.40;99.90;;;;;;5081480;28;19919;-82
2021/01/06 04:46:49;;;;;;;;;;;4.40;99.90;;;;;;5020689;28;19913;-81
2021/01/06 04:49:23;;;;;;;;;;;4.40;99.90;;;;;;5099372;28;19912;-81
2021/01/06 04:51:52;;;;;;;;;;;4.50;99.90;;;;;;5082739;28;19915;-82
2021/01/06 04:54:17;;;;;;;;;;;4.50;99.90;;;;;;5066517;28;19920;-82
2021/01/06 04:56:58;;;;;;;;;;;4.50;99.90;;;;;;5063786;28;19913;-83
2021/01/06 04:59:53;;;;;;;;;;;4.50;99.90;;;;;;5062413;28;19909;-81
2021/01/06 05:02:30;;;;;;;;;;;4.50;99.90;;;;;;4983296;28;20533;-83
2021/01/06 05:04:55;;;;;;;;;;;4.50;99.90;;;;;;5064256;28;19917;-83
2021/01/06 05:07:31;;;;;;;;;;;4.50;99.90;;;;;;5084317;28;19931;-83
2021/01/06 05:09:58;;;;;;;;;;;4.50;99.90;;;;;;5067123;28;19958;-82
2021/01/06 05:12:24;;;;;;;;;;;4.50;99.90;;;;;;5079221;28;20003;-83
2021/01/06 05:14:53;;;;;;;;;;;4.50;99.90;;;;;;5063347;28;19948;-82
2021/01/06 05:17:18;;;;;;;;;;;4.50;99.90;;;;;;5073498;28;20369;-83
2021/01/06 05:19:46;;;;;;;;;;;4.50;99.90;;;;;;5079807;28;19951;-82
2021/01/06 05:22:12;;;;;;;;;;;4.50;99.90;;;;;;5099634;28;20019;-81
2021/01/06 05:24:43;;;;;;;;;;;4.50;99.90;;;;;;5082301;28;19920;-83
2021/01/06 05:27:14;;;;;;;;;;;4.50;99.90;;;;;;5093345;28;19919;-83
2021/01/06 05:29:40;;;;;;;;;;;4.50;99.90;;;;;;5077443;28;20348;-82
2021/01/06 05:32:07;;;;;;;;;;;4.50;99.90;;;;;;5082387;28;19962;-82
2021/01/06 05:34:34;;;;;;;;;;;4.50;99.90;;;;;;5072941;28;19991;-82
2021/01/06 05:37:00;;;;;;;;;;;4.50;99.90;;;;;;5093621;28;19966;-82
2021/01/06 05:39:27;;;;;;;;;;;4.50;99.90;;;;;;5082258;28;19916;-82
2021/01/06 05:41:53;;;;;;;;;;;4.50;99.90;;;;;;5072412;28;20281;-82
2021/01/06 05:44:19;;;;;;;;;;;4.50;99.90;;;;;;5062062;28;19916;-82
2021/01/06 05:46:45;;;;;;;;;;;4.50;99.90;;;;;;5075559;28;20045;-82
2021/01/06 05:49:26;;;;;;;;;;;4.50;99.90;;;;;;5081606;28;19919;-82
2021/01/06 05:51:55;;;;;;;;;;;4.50;99.90;;;;;;5071572;28;20283;-82
2021/01/06 05:54:36;;;;;;;;;;;4.50;99.90;;;;;;5091629;28;19912;-81
2021/01/06 05:57:01;;;;;;;;;;;4.50;99.90;;;;;;5068825;28;19920;-83
2021/01/06 05:59:29;;;;;;;;;;;4.50;99.90;;;;;;5063761;28;19913;-82
2021/01/06 06:02:03;;;;;;;;;;;4.40;99.90;;;;;;5064194;28;19938;-82
2021/01/06 06:04:32;;;;;;;;;;;4.40;99.90;;;;;;5082295;28;19924;-82
2021/01/06 06:07:04;;;;;;;;;;;4.40;99.90;;;;;;5071321;28;19912;-82
2021/01/06 06:09:39;;;;;;;;;;;4.40;99.90;;;;;;5077298;28;19928;-82
2021/01/06 06:12:19;;;;;;;;;;;4.40;99.90;;;;;;5081403;28;19912;-82
2021/01/06 06:15:03;;;;;;;;;;;4.40;99.90;;;;;;5064646;28;19912;-82
2021/01/06 06:17:43;;;;;;;;;;;4.40;99.90;;;;;;5081363;28;19948;-82
2021/01/06 06:20:12;;;;;;;;;;;4.40;99.90;;;;;;5093661;28;19913;-82
2021/01/06 06:22:56;;;;;;;;;;;4.40;99.90;;;;;;5092037;28;19909;-82
2021/01/06 06:25:24;;;;;;;;;;;4.30;99.90;;;;;;5068336;28;19999;-80
2021/01/06 06:27:49;;;;;;;;;;;4.30;99.90;;;;;;5042806;28;19948;-82
2021/01/06 06:30:21;;;;;;;;;;;4.30;99.90;;;;;;5092703;28;19909;-81
2021/01/06 06:32:48;;;;;;;;;;;4.30;99.90;;;;;;5079184;28;20377;-82
2021/01/06 06:35:19;;;;;;;;;;;4.30;99.90;;;;;;5078549;28;19921;-82
2021/01/06 06:37:51;;;;;;;;;;;4.30;99.90;;;;;;5079216;28;19939;-82
2021/01/06 06:40:17;;;;;;;;;;;4.30;99.90;;;;;;5077051;28;20003;-82
2021/01/06 06:42:48;;;;;;;;;;;4.30;99.90;;;;;;5074900;28;19947;-83
2021/01/06 06:45:40;;;;;;;;;;;4.30;99.90;;;;;;5064624;28;20430;-83
2021/01/06 06:48:15;;;;;;;;;;;4.30;99.90;;;;;;5080894;28;19989;-83
2021/01/06 06:51:19;;;;;;;;;;;4.20;99.90;;;;;;5083189;28;19919;-81
2021/01/06 06:54:02;;;;;;;;;;;4.20;99.90;;;;;;4976657;28;19914;-82
2021/01/06 06:56:31;;;;;;;;;;;4.20;99.90;;;;;;4962829;28;19914;-82
2021/01/06 06:59:09;;;;;;;;;;;4.20;99.90;;;;;;5024388;28;19920;-83
2021/01/06 07:01:44;;;;;;;;;;;4.20;99.90;;;;;;5095764;28;20337;-82
2021/01/06 07:04:30;;;;;;;;;;;4.20;99.90;;;;;;5082271;23;21463;-82
2021/01/06 07:06:57;;;;;;;;;;;4.20;99.90;;;;;;5001347;28;19920;-82
2021/01/06 07:09:26;;;;;;;;;;;4.20;99.90;;;;;;5056001;28;19913;-80
2021/01/06 07:11:58;;;;;;;;;;;4.20;99.90;;;;;;5057403;28;19913;-80
2021/01/06 07:14:26;;;;;;;;;;;4.30;99.90;;;;;;5040041;28;20007;-80
2021/01/06 07:16:51;;;;;;;;;;;4.30;99.90;;;;;;5039286;28;20389;-80
2021/01/06 07:19:20;;;;;;;;;;;4.30;99.90;;;;;;5052741;28;19959;-81
2021/01/06 07:22:04;;;;;;;;;;;4.40;99.90;;;;;;5057361;28;19920;-80
2021/01/06 07:24:30;;;;;;;;;;;4.50;99.90;;;;;;5038054;28;19972;-80
2021/01/06 07:27:00;;;;;;;;;;;4.60;99.90;;;;;;5075880;28;19950;-81
2021/01/06 07:29:32;;;;;;;;;;;4.70;99.90;;;;;;5058356;28;19917;-80
2021/01/06 07:32:02;;;;;;;;;;;4.70;99.90;;;;;;5052473;28;19913;-82
2021/01/06 07:34:46;;;;;;;;;;;4.80;99.90;;;;;;5036681;28;19940;-82
2021/01/06 07:37:30;;;;;;;;;;;4.70;99.90;;;;;;5071549;28;19912;-82
2021/01/06 07:40:00;;;;;;;;;;;4.80;99.90;;;;;;5067161;28;19929;-82
2021/01/06 07:42:35;;;;;;;;;;;4.80;99.90;;;;;;5037853;28;19913;-82
2021/01/06 07:45:09;;;;;;;;;;;4.80;99.90;;;;;;5068592;28;20291;-82
2021/01/06 07:47:36;;;;;;;;;;;4.80;99.90;;;;;;5044402;28;19913;-82
2021/01/06 07:50:08;;;;;;;;;;;4.90;99.90;;;;;;5054396;28;19956;-82
2021/01/06 07:52:45;;;;;;;;;;;4.90;99.90;;;;;;5072593;28;19912;-82
2021/01/06 07:55:26;;;;;;;;;;;4.90;99.90;;;;;;5072168;28;19920;-81
2021/01/06 07:57:53;;;;;;;;;;;5.00;99.90;;;;;;5041980;28;19936;-82
2021/01/06 08:00:30;;;;;;;;;;;5.00;99.90;;;;;;5062544;28;19920;-81
2021/01/06 08:02:59;;;;;;;;;;;5.00;99.90;;;;;;5059198;28;19912;-81
2021/01/06 08:05:33;;;;;;;;;;;5.10;99.90;;;;;;5074236;28;19916;-81
2021/01/06 08:08:01;;;;;;;;;;;5.20;99.90;;;;;;5025404;28;19952;-81
2021/01/06 08:10:28;;;;;;;;;;;5.20;99.90;;;;;;5061957;28;19940;-81
2021/01/06 08:13:07;;;;;;;;;;;5.30;99.90;;;;;;5042223;28;19910;-81
2021/01/06 08:15:32;;;;;;;;;;;5.30;99.90;;;;;;5040483;28;20294;-81
2021/01/06 08:18:01;;;;;;;;;;;5.40;99.90;;;;;;5030873;28;19999;-82
2021/01/06 08:20:28;;;;;;;;;;;5.40;99.90;;;;;;5062983;28;19962;-81
2021/01/06 08:23:04;;;;;;;;;;;5.50;99.90;;;;;;5058229;28;19991;-82
2021/01/06 08:25:32;;;;;;;;;;;5.50;99.90;;;;;;5049920;28;20304;-82
2021/01/06 08:27:57;;;;;;;;;;;5.50;99.90;;;;;;5077813;28;19931;-82
2021/01/06 08:30:25;;;;;;;;;;;5.50;99.90;;;;;;5045310;28;19917;-82
2021/01/06 08:33:02;;;;;;;;;;;5.50;99.90;;;;;;5053618;28;19913;-82
2021/01/06 08:35:29;;;;;;;;;;;5.60;99.90;;;;;;5048197;28;19948;-82
2021/01/06 08:37:55;;;;;;;;;;;5.60;99.90;;;;;;5076057;28;19919;-83
2021/01/06 08:40:23;;;;;;;;;;;5.60;99.90;;;;;;5070458;28;19912;-80
2021/01/06 08:42:49;;;;;;;;;;;5.60;99.90;;;;;;5077208;28;19913;-80
2021/01/06 08:45:22;;;;;;;;;;;5.70;99.90;;;;;;5053379;28;19955;-79
2021/01/06 08:47:48;;;;;;;;;;;5.70;99.90;;;;;;5056656;28;19921;-80
2021/01/06 08:50:16;;;;;;;;;;;5.70;99.90;;;;;;5069166;28;19980;-79
2021/01/06 08:52:57;;;;;;;;;;;5.70;99.90;;;;;;5062057;28;19971;-79
2021/01/06 08:55:30;;;;;;;;;;;5.70;99.90;;;;;;5058580;28;19913;-78
2021/01/06 08:57:56;;;;;;;;;;;5.70;99.90;;;;;;5059526;28;19913;-79
2021/01/06 09:00:34;;;;;;;;;;;5.70;99.90;;;;;;5059549;28;20487;-78
2021/01/06 09:03:01;;;;;;;;;;;5.70;99.90;;;;;;5040180;28;19919;-78
2021/01/06 09:05:45;;;;;;;;;;;5.70;99.90;;;;;;5041829;28;20384;-78
2021/01/06 09:08:12;;;;;;;;;;;5.70;99.90;;;;;;5058008;28;19912;-81
2021/01/06 09:10:43;;;;;;;;;;;5.70;99.90;;;;;;5047855;28;19912;-78
2021/01/06 09:13:15;;;;;;;;;;;5.70;99.90;;;;;;5058864;28;20296;-78
2021/01/06 09:15:46;;;;;;;;;;;5.70;99.90;;;;;;5055463;28;19909;-77
2021/01/06 09:18:18;;;;;;;;;;;5.70;99.90;;;;;;5047149;28;19915;-78
2021/01/06 09:20:49;;;;;;;;;;;5.70;99.90;;;;;;5056619;28;20261;-78
2021/01/06 09:23:17;;;;;;;;;;;5.70;99.90;;;;;;5025089;28;19915;-78
2021/01/06 09:25:42;;;;;;;;;;;5.70;99.90;;;;;;5052864;28;19913;-78
2021/01/06 09:28:11;;;;;;;;;;;5.60;99.90;;;;;;5058242;28;19913;-78
2021/01/06 09:30:37;;;;;;;;;;;5.60;99.90;;;;;;5057094;28;19909;-78
2021/01/06 09:33:11;;;;;;;;;;;5.60;99.90;;;;;;5076799;28;19919;-78
2021/01/06 09:35:37;;;;;;;;;;;5.60;99.90;;;;;;5061581;28;19913;-77
2021/01/06 09:38:03;;;;;;;;;;;5.70;99.90;;;;;;5047492;28;19991;-77
2021/01/06 09:40:30;;;;;;;;;;;5.80;99.90;;;;;;5060888;28;19955;-78
2021/01/06 09:43:00;;;;;;;;;;;5.80;99.90;;;;;;5077129;28;19912;-78
2021/01/06 09:45:27;;;;;;;;;;;5.90;99.90;;;;;;5047809;28;19920;-78
2021/01/06 09:47:55;;;;;;;;;;;6.00;99.90;;;;;;5058291;28;19912;-78
2021/01/06 09:50:27;;;;;;;;;;;6.00;99.90;;;;;;5057822;28;20272;-78
2021/01/06 09:52:53;;;;;;;;;;;6.00;99.90;;;;;;5048432;28;19920;-78
2021/01/06 09:55:21;;;;;;;;;;;6.00;99.90;;;;;;5058609;28;19913;-78
2021/01/06 09:57:55;;;;;;;;;;;6.10;99.90;;;;;;5067617;28;19913;-78
2021/01/06 10:00:21;;;;;;;;;;;6.10;99.90;;;;;;5060881;28;19962;-78
2021/01/06 10:02:48;;;;;;;;;;;6.00;99.90;;;;;;5039858;28;20331;-79
2021/01/06 10:05:17;;;;;;;;;;;6.10;99.90;;;;;;5058968;28;19916;-77
2021/01/06 10:07:50;;;;;;;;;;;6.10;99.90;;;;;;5069840;28;19913;-78
2021/01/06 10:10:18;;;;;;;;;;;6.10;99.90;;;;;;5074233;28;19909;-77
2021/01/06 10:13:04;;;;;;;;;;;6.20;99.90;;;;;;5071573;28;19919;-77
2021/01/06 10:15:39;;;;;;;;;;;6.20;99.90;;;;;;5070806;28;19913;-78
2021/01/06 10:18:14;;;;;;;;;;;6.20;99.90;;;;;;5047007;28;19920;-78
2021/01/06 10:20:42;;;;;;;;;;;6.30;99.90;;;;;;5055582;28;19944;-78
2021/01/06 10:23:27;;;;;;;;;;;6.30;99.90;;;;;;5034947;28;20296;-78
2021/01/06 10:26:03;;;;;;;;;;;6.30;99.90;;;;;;5061295;28;20395;-77
2021/01/06 10:28:28;;;;;;;;;;;6.40;99.90;;;;;;5055805;28;19999;-77
2021/01/06 10:31:05;;;;;;;;;;;6.40;99.90;;;;;;5053811;28;19955;-78
2021/01/06 10:33:32;;;;;;;;;;;6.40;99.90;;;;;;5035411;28;19924;-77
2021/01/06 10:35:58;;;;;;;;;;;6.50;99.90;;;;;;5034077;28;19917;-77
2021/01/06 10:38:28;;;;;;;;;;;6.50;99.90;;;;;;5027293;28;19935;-77
2021/01/06 10:41:08;;;;;;;;;;;6.50;99.90;;;;;;5043937;28;19917;-77
2021/01/06 10:43:35;;;;;;;;;;;6.50;99.90;;;;;;5049337;28;19912;-78
2021/01/06 10:46:01;;;;;;;;;;;6.60;99.90;;;;;;5052586;28;19917;-78
2021/01/06 10:48:47;;;;;;;;;;;6.70;99.90;;;;;;5049631;28;19963;-79
2021/01/06 10:51:31;;;;;;;;;;;6.70;99.90;;;;;;5058563;28;20404;-79
2021/01/06 10:54:01;;;;;;;;;;;6.90;99.90;;;;;;5072759;28;19913;-78
2021/01/06 10:56:29;;;;;;;;;;;7.00;99.90;;;;;;5050685;28;19939;-78
2021/01/06 10:58:57;;;;;;;;;;;7.10;99.90;;;;;;5069628;28;20367;-78
2021/01/06 11:01:25;;;;;;;;;;;7.30;99.90;;;;;;5059987;28;19924;-81
2021/01/06 11:04:10;;;;;;;;;;;7.40;99.90;;;;;;5037872;28;19916;-80
2021/01/06 11:06:35;;;;;;;;;;;7.50;99.90;;;;;;5035910;28;20007;-80
2021/01/06 11:09:01;;;;;;;;;;;7.40;99.90;;;;;;5036267;28;19917;-79
2021/01/06 11:11:42;;;;;;;;;;;7.40;99.90;;;;;;5052766;28;19912;-80
2021/01/06 11:14:22;;;;;;;;;;;7.40;99.90;;;;;;5032955;28;19940;-80
2021/01/06 11:16:49;;;;;;;;;;;7.30;99.90;;;;;;5050904;28;19916;-81
2021/01/06 11:19:33;;;;;;;;;;;7.30;99.90;;;;;;5053929;28;20003;-81
2021/01/06 11:22:05;;;;;;;;;;;7.20;99.90;;;;;;5038483;28;19913;-81
2021/01/06 11:24:39;;;;;;;;;;;7.20;99.90;;;;;;5038526;28;19917;-81
2021/01/06 11:27:25;;;;;;;;;;;7.10;99.90;;;;;;5055711;28;19913;-81
2021/01/06 11:29:55;;;;;;;;;;;7.10;99.90;;;;;;5056503;28;19912;-81
2021/01/06 11:32:23;;;;;;;;;;;7.10;99.90;;;;;;5038668;28;19913;-81
2021/01/06 11:34:55;;;;;;;;;;;7.10;99.90;;;;;;5041702;28;19920;-82
2021/01/06 11:37:37;;;;;;;;;;;7.10;99.90;;;;;;5056700;28;20351;-81
2021/01/06 11:40:05;;;;;;;;;;;7.10;99.90;;;;;;5057152;28;19912;-81
2021/01/06 11:42:43;;;;;;;;;;;7.00;99.90;;;;;;5057050;28;19933;-81
2021/01/06 11:45:09;;;;;;;;;;;7.10;99.90;;;;;;5038729;28;20365;-81
2021/01/06 11:47:34;;;;;;;;;;;7.00;99.90;;;;;;5057302;28;19939;-81
2021/01/06 11:50:00;;;;;;;;;;;7.00;99.90;;;;;;5055133;28;19919;-81
2021/01/06 11:52:37;;;;;;;;;;;6.90;99.90;;;;;;5055770;28;19913;-81
2021/01/06 11:55:21;;;;;;;;;;;6.90;99.90;;;;;;5055994;28;19931;-81
2021/01/06 11:57:55;;;;;;;;;;;6.90;99.90;;;;;;5056311;28;19920;-81
2021/01/06 12:00:40;;;;;;;;;;;6.90;99.90;;;;;;5038606;28;19909;-81
2021/01/06 12:03:05;;;;;;;;;;;7.00;99.90;;;;;;5056520;28;19913;-81
2021/01/06 12:05:32;;;;;;;;;;;6.90;99.90;;;;;;5034110;28;19917;-81
2021/01/06 12:08:16;;;;;;;;;;;7.00;99.90;;;;;;5037368;28;19939;-81
2021/01/06 12:11:00;;;;;;;;;;;7.00;99.90;;;;;;5056730;28;19908;-81
2021/01/06 12:13:25;;;;;;;;;;;7.00;99.90;;;;;;5036670;28;20004;-81
2021/01/06 12:16:14;;;;;;;;;;;7.00;99.90;;;;;;5035732;28;19952;-81
2021/01/06 12:19:18;;;;;;;;;;;7.00;99.90;;;;;;4998888;28;19967;-81
2021/01/06 12:21:55;;;;;;;;;;;6.90;99.90;;;;;;4962029;28;19914;-81
2021/01/06 12:24:30;;;;;;;;;;;6.90;99.90;;;;;;4974260;28;19918;-81
2021/01/06 12:27:01;;;;;;;;;;;6.90;99.90;;;;;;5023817;28;20400;-81
2021/01/06 12:29:32;;;;;;;;;;;6.80;99.90;;;;;;5048769;28;19932;-81
2021/01/06 12:32:10;;;;;;;;;;;6.80;99.90;;;;;;5039890;28;19923;-81
2021/01/06 12:34:37;;;;;;;;;;;6.80;99.90;;;;;;5050282;28;19984;-81
2021/01/06 12:37:11;;;;;;;;;;;6.90;99.90;;;;;;5046857;28;19966;-82
2021/01/06 12:39:39;;;;;;;;;;;6.90;99.90;;;;;;5060643;28;19921;-81
2021/01/06 12:42:14;;;;;;;;;;;6.90;99.90;;;;;;5052622;28;19913;-81
2021/01/06 12:44:43;;;;;;;;;;;6.90;99.90;;;;;;5059058;28;19912;-81
2021/01/06 12:47:35;;;;;;;;;;;7.00;99.90;;;;;;5059172;28;20407;-81
2021/01/06 12:50:11;;;;;;;;;;;7.00;99.90;;;;;;5056870;28;20387;-82
2021/01/06 12:52:42;;;;;;;;;;;7.00;99.90;;;;;;5059760;28;19963;-80
2021/01/06 12:55:19;;;;;;;;;;;7.00;99.90;;;;;;5058427;28;19920;-80
2021/01/06 12:57:50;;;;;;;;;;;7.00;99.90;;;;;;5076599;28;19909;-82
2021/01/06 13:00:21;;;;;;;;;;;6.90;99.90;;;;;;5059044;28;19912;-82
2021/01/06 13:02:47;;;;;;;;;;;6.80;99.90;;;;;;5052932;28;19913;-82
2021/01/06 13:05:18;;;;;;;;;;;6.70;99.90;;;;;;5073456;22;19931;-82
2021/01/06 13:07:47;;;;;;;;;;;6.60;99.90;;;;;;5049164;28;19917;-83
2021/01/06 13:10:16;;;;;;;;;;;6.50;99.90;;;;;;5043989;28;20425;-82
2021/01/06 13:12:44;;;;;;;;;;;6.40;99.90;;;;;;5050068;28;20427;-82
2021/01/06 13:15:21;;;;;;;;;;;6.40;99.90;;;;;;5041503;28;19979;-82
2021/01/06 13:17:56;;;;;;;;;;;6.30;99.90;;;;;;5060856;28;19913;-82
2021/01/06 13:20:39;;;;;;;;;;;6.30;99.90;;;;;;5041536;28;19913;-82
2021/01/06 13:23:10;;;;;;;;;;;6.30;99.90;;;;;;5058366;28;19966;-82
2021/01/06 13:25:39;;;;;;;;;;;6.30;99.90;;;;;;5061614;28;19943;-82
2021/01/06 13:28:17;;;;;;;;;;;6.30;99.90;;;;;;5042425;28;19912;-83
2021/01/06 13:30:54;;;;;;;;;;;6.30;99.90;;;;;;5061833;28;19913;-84
2021/01/06 13:33:38;;;;;;;;;;;6.40;99.90;;;;;;5040968;28;19959;-83
2021/01/06 13:36:13;;;;;;;;;;;6.40;99.90;;;;;;5042435;28;19916;-83
2021/01/06 13:38:59;;;;;;;;;;;6.40;99.90;;;;;;5055340;28;19920;-83
2021/01/06 13:41:27;;;;;;;;;;;6.40;99.90;;;;;;5061009;28;19919;-83
2021/01/06 13:43:56;;;;;;;;;;;6.40;99.90;;;;;;5047618;28;19909;-83
2021/01/06 13:46:39;;;;;;;;;;;6.40;99.90;;;;;;5063575;28;19920;-83
2021/01/06 13:49:13;;;;;;;;;;;6.40;99.90;;;;;;5062126;28;20320;-83
2021/01/06 13:51:45;;;;;;;;;;;6.40;99.90;;;;;;5044889;28;19912;-83
2021/01/06 13:54:32;;;;;;;;;;;6.30;99.90;;;;;;5042078;28;19949;-82
2021/01/06 13:57:02;;;;;;;;;;;6.30;99.90;;;;;;5032002;28;20289;-83
2021/01/06 13:59:41;;;;;;;;;;;6.30;99.90;;;;;;5059015;28;19909;-83
2021/01/06 14:02:15;;;;;;;;;;;6.30;99.90;;;;;;5045176;28;19913;-84
2021/01/06 14:04:46;;;;;;;;;;;6.30;99.90;;;;;;5045432;28;19960;-83
2021/01/06 14:07:25;;;;;;;;;;;6.20;99.90;;;;;;5045488;28;19971;-82
2021/01/06 14:10:00;;;;;;;;;;;6.20;99.90;;;;;;5045397;28;19909;-82
2021/01/06 14:12:45;;;;;;;;;;;6.20;99.90;;;;;;5040797;28;19921;-81
2021/01/06 14:15:32;;;;;;;;;;;6.30;99.90;;;;;;5042921;28;19909;-82
2021/01/06 14:18:05;;;;;;;;;;;6.30;99.90;;;;;;5039725;28;19913;-83
2021/01/06 14:20:49;;;;;;;;;;;6.30;99.90;;;;;;5043991;28;19920;-83
2021/01/06 14:23:18;;;;;;;;;;;6.30;99.90;;;;;;5044037;28;19930;-85
2021/01/06 14:25:49;;;;;;;;;;;6.20;99.90;;;;;;5043348;28;19943;-83
2021/01/06 14:28:33;;;;;;;;;;;6.20;99.90;;;;;;5058618;28;19978;-82
2021/01/06 14:31:20;;;;;;;;;;;6.10;99.90;;;;;;5044935;28;19912;-83
2021/01/06 14:33:57;;;;;;;;;;;6.10;99.90;;;;;;5042655;28;19925;-83
2021/01/06 14:36:25;;;;;;;;;;;6.10;99.90;;;;;;5059011;28;19913;-83
2021/01/06 14:38:53;;;;;;;;;;;6.00;99.90;;;;;;5041421;28;20071;-83
2021/01/06 14:41:22;;;;;;;;;;;5.90;99.90;;;;;;5060230;28;20388;-82
2021/01/06 14:43:52;;;;;;;;;;;5.90;99.90;;;;;;5061699;28;20297;-82
2021/01/06 14:46:29;;;;;;;;;;;5.90;99.90;;;;;;5064639;28;19940;-82
2021/01/06 14:49:16;;;;;;;;;;;5.80;99.90;;;;;;5070398;28;20521;-83
2021/01/06 14:51:54;;;;;;;;;;;5.80;99.90;;;;;;5052741;28;19952;-82
2021/01/06 14:54:22;;;;;;;;;;;5.80;99.90;;;;;;5060182;28;20007;-83